Time;durP1;ratioP1;P1;durP2;ratioP2;P2;SDS_P1;SDS_P2;PMS_P1;PMS_P2;Temp;Humidity;BMP_temperature;BMP_pressure;BME280_temperature;BME280_humidity;BME280_pressure;Samples;Min_cycle;Max_cycle;Signal;HPM_P1;HPM_P2
2023/06/02 00:01:49;;;;;;;10.35;2.33;;;12.00;99.90;;;;;;5012972;28;20903;-79
2023/06/02 00:04:17;;;;;;;8.02;2.22;;;12.00;99.90;;;;;;5020805;28;20033;-79
2023/06/02 00:06:47;;;;;;;4.45;2.10;;;12.00;99.90;;;;;;5022799;28;20051;-79
2023/06/02 00:09:14;;;;;;;7.85;2.08;;;11.90;99.90;;;;;;5037644;28;20069;-78
2023/06/02 00:11:39;;;;;;;9.10;2.00;;;11.90;99.90;;;;;;5009405;28;20037;-79
2023/06/02 00:14:05;;;;;;;4.65;2.15;;;11.90;99.90;;;;;;5038156;28;20040;-79
2023/06/02 00:16:41;;;;;;;6.75;1.85;;;11.80;99.90;;;;;;5030147;28;20096;-79
2023/06/02 00:19:07;;;;;;;6.40;2.10;;;11.80;99.90;;;;;;5023698;28;20615;-78
2023/06/02 00:21:36;;;;;;;6.03;2.00;;;11.80;99.90;;;;;;5011020;28;20116;-78
2023/06/02 00:24:05;;;;;;;5.50;1.90;;;11.80;99.90;;;;;;5006125;28;20043;-78
2023/06/02 00:26:30;;;;;;;5.10;2.15;;;11.80;99.90;;;;;;5010624;28;20052;-79
2023/06/02 00:28:56;;;;;;;5.00;2.10;;;11.80;99.90;;;;;;5036279;28;20026;-77
2023/06/02 00:31:22;;;;;;;5.20;2.17;;;11.80;99.90;;;;;;5026236;28;20205;-79
2023/06/02 00:33:48;;;;;;;7.50;2.10;;;11.80;99.90;;;;;;5041696;28;20995;-79
2023/06/02 00:36:14;;;;;;;5.93;1.80;;;11.70;99.90;;;;;;5034680;28;20507;-78
2023/06/02 00:38:41;;;;;;;7.07;2.20;;;11.70;99.90;;;;;;5006413;28;20140;-78
2023/06/02 00:41:07;;;;;;;5.47;1.85;;;11.70;99.90;;;;;;5038586;28;20068;-78
2023/06/02 00:43:33;;;;;;;4.53;1.95;;;11.70;99.90;;;;;;5023633;28;20037;-77
2023/06/02 00:45:58;;;;;;;4.07;2.05;;;11.70;99.90;;;;;;5032166;28;20038;-79
2023/06/02 00:48:25;;;;;;;5.28;1.80;;;11.70;99.90;;;;;;5023376;28;20052;-79
2023/06/02 00:50:51;;;;;;;5.38;2.25;;;11.70;99.90;;;;;;5006873;28;20111;-78
2023/06/02 00:53:17;;;;;;;6.75;1.90;;;11.70;99.90;;;;;;5014495;28;20044;-78
2023/06/02 00:55:44;;;;;;;5.47;2.00;;;11.70;99.90;;;;;;5032926;28;20447;-77
2023/06/02 00:58:13;;;;;;;4.53;2.15;;;11.80;99.90;;;;;;5005261;28;20123;-78
2023/06/02 01:00:42;;;;;;;8.38;2.17;;;11.70;99.90;;;;;;5030681;28;20106;-78
2023/06/02 01:03:08;;;;;;;9.57;2.17;;;11.80;99.90;;;;;;5031370;28;20117;-78
2023/06/02 01:05:36;;;;;;;3.60;1.95;;;11.80;99.90;;;;;;5023813;28;20479;-78
2023/06/02 01:08:04;;;;;;;3.95;1.80;;;11.80;99.90;;;;;;5036266;28;20432;-78
2023/06/02 01:10:31;;;;;;;5.63;1.90;;;11.80;99.90;;;;;;5014802;28;20036;-78
2023/06/02 01:12:57;;;;;;;4.97;2.10;;;11.80;99.90;;;;;;5027709;28;20049;-78
2023/06/02 01:15:31;;;;;;;3.03;1.50;;;11.70;99.90;;;;;;5006938;28;20063;-81
2023/06/02 01:17:57;;;;;;;4.97;1.60;;;11.70;99.90;;;;;;5022923;28;20033;-78
2023/06/02 01:20:24;;;;;;;4.63;1.70;;;11.70;99.90;;;;;;5009756;28;20596;-78
2023/06/02 01:22:54;;;;;;;4.63;1.58;;;11.70;99.90;;;;;;5030757;28;20033;-79
2023/06/02 01:25:25;;;;;;;2.60;1.20;;;11.70;99.90;;;;;;5030000;28;20029;-78
2023/06/02 01:27:51;;;;;;;4.53;1.45;;;11.70;99.90;;;;;;5026886;28;20096;-79
2023/06/02 01:30:20;;;;;;;3.70;1.23;;;11.70;99.90;;;;;;5011468;28;20528;-79
2023/06/02 01:33:07;;;;;;;4.07;1.42;;;11.60;99.90;;;;;;5022720;28;20121;-78
2023/06/02 01:35:46;;;;;;;4.18;1.30;;;11.60;99.90;;;;;;5042327;28;20032;-78
2023/06/02 01:38:14;;;;;;;4.78;1.48;;;11.60;99.90;;;;;;5023902;28;20116;-78
2023/06/02 01:40:41;;;;;;;3.15;1.30;;;11.60;99.90;;;;;;5032485;28;20041;-79
2023/06/02 01:43:08;;;;;;;3.25;1.10;;;11.60;99.90;;;;;;5025002;28;20033;-79
2023/06/02 01:45:36;;;;;;;2.50;1.05;;;11.60;99.90;;;;;;5032234;28;20057;-78
2023/06/02 01:48:06;;;;;;;2.80;0.80;;;11.70;99.90;;;;;;5005878;28;20057;-79
2023/06/02 01:50:34;;;;;;;2.45;1.40;;;11.60;99.90;;;;;;5025400;28;20037;-78
2023/06/02 01:53:00;;;;;;;2.25;1.10;;;11.60;99.90;;;;;;5008669;28;20029;-78
2023/06/02 01:55:26;;;;;;;2.65;1.42;;;11.60;99.90;;;;;;5008169;28;20097;-78
2023/06/02 01:57:51;;;;;;;2.88;0.95;;;11.60;99.90;;;;;;5023936;28;20682;-77
2023/06/02 02:00:19;;;;;;;4.65;1.30;;;11.60;99.90;;;;;;5042842;28;20037;-78
2023/06/02 02:02:45;;;;;;;3.53;1.10;;;11.60;99.90;;;;;;5022656;28;20083;-78
2023/06/02 02:05:11;;;;;;;2.95;1.00;;;11.60;99.90;;;;;;5020488;28;20376;-78
2023/06/02 02:07:42;;;;;;;3.17;1.52;;;11.60;99.90;;;;;;5024327;28;20079;-77
2023/06/02 02:10:10;;;;;;;3.92;1.13;;;11.60;99.90;;;;;;5011313;28;20033;-78
2023/06/02 02:12:35;;;;;;;2.03;0.80;;;11.50;99.90;;;;;;5029375;28;20033;-77
2023/06/02 02:15:01;;;;;;;3.03;1.10;;;11.50;99.90;;;;;;5017379;28;20024;-78
2023/06/02 02:17:28;;;;;;;2.85;1.10;;;11.50;99.90;;;;;;5027122;28;20088;-78
2023/06/02 02:19:55;;;;;;;3.08;1.25;;;11.50;99.90;;;;;;5035944;28;20659;-79
2023/06/02 02:22:23;;;;;;;3.17;1.08;;;11.50;99.90;;;;;;5034846;28;20018;-78
2023/06/02 02:24:49;;;;;;;1.10;0.77;;;11.50;99.90;;;;;;5043850;28;20027;-78
2023/06/02 02:27:15;;;;;;;0.90;0.70;;;11.50;99.90;;;;;;5026920;28;20175;-78
2023/06/02 02:29:41;;;;;;;3.22;1.00;;;11.60;99.90;;;;;;5013525;28;20049;-78
2023/06/02 02:32:07;;;;;;;1.88;0.93;;;11.60;99.90;;;;;;5044772;28;20056;-78
2023/06/02 02:34:33;;;;;;;4.68;1.00;;;11.60;99.90;;;;;;5040504;28;20159;-78
2023/06/02 02:37:02;;;;;;;3.55;1.08;;;11.60;99.90;;;;;;5026250;28;20122;-79
2023/06/02 02:39:29;;;;;;;3.33;1.33;;;11.60;99.90;;;;;;5021591;28;20041;-79
2023/06/02 02:41:54;;;;;;;2.63;1.02;;;11.60;99.90;;;;;;5008412;28;20398;-78
2023/06/02 02:44:20;;;;;;;5.60;1.00;;;11.60;99.90;;;;;;5014236;28;20064;-79
2023/06/02 02:46:46;;;;;;;1.50;0.98;;;11.50;99.90;;;;;;5026182;28;20504;-78
2023/06/02 02:49:11;;;;;;;2.97;1.55;;;11.50;99.90;;;;;;5030700;28;20052;-78
2023/06/02 02:51:37;;;;;;;1.75;0.80;;;11.50;99.90;;;;;;5040478;28;20124;-78
2023/06/02 02:54:03;;;;;;;1.63;0.90;;;11.50;99.90;;;;;;5033726;28;20060;-78
2023/06/02 02:56:30;;;;;;;3.88;1.17;;;11.50;99.90;;;;;;5028422;28;20377;-78
2023/06/02 02:58:59;;;;;;;3.45;1.02;;;11.60;99.90;;;;;;5029927;28;20025;-78
2023/06/02 03:01:26;;;;;;;4.55;1.27;;;11.50;99.90;;;;;;5030579;28;20044;-77
2023/06/02 03:03:52;;;;;;;4.88;1.33;;;11.50;99.90;;;;;;5043233;28;20083;-78
2023/06/02 03:06:19;;;;;;;2.95;1.10;;;11.40;99.90;;;;;;5033060;28;20495;-78
2023/06/02 03:08:45;;;;;;;4.15;1.63;;;11.40;99.90;;;;;;5039675;28;20110;-78
2023/06/02 03:11:11;;;;;;;8.50;1.48;;;11.50;99.90;;;;;;5030906;28;20033;-78
2023/06/02 03:13:37;;;;;;;2.75;1.20;;;11.40;99.90;;;;;;5022195;28;20029;-78
2023/06/02 03:16:02;;;;;;;4.25;1.38;;;11.40;99.90;;;;;;5036750;28;20504;-78
2023/06/02 03:18:28;;;;;;;7.70;1.25;;;11.40;99.90;;;;;;5018384;28;20037;-78
2023/06/02 03:20:55;;;;;;;6.65;1.58;;;11.40;99.90;;;;;;5007765;28;20041;-77
2023/06/02 03:23:21;;;;;;;6.70;1.77;;;11.40;99.90;;;;;;5034791;28;20029;-78
2023/06/02 03:25:49;;;;;;;5.93;1.60;;;11.40;99.90;;;;;;5018635;28;20056;-79
2023/06/02 03:28:15;;;;;;;6.30;1.35;;;11.30;99.90;;;;;;5014392;28;20029;-79
2023/06/02 03:30:40;;;;;;;3.92;1.55;;;11.30;99.90;;;;;;5028425;28;20060;-78
2023/06/02 03:33:06;;;;;;;7.95;1.80;;;11.30;99.90;;;;;;5022394;28;20029;-78
2023/06/02 03:35:34;;;;;;;9.02;1.65;;;11.30;99.90;;;;;;5016327;28;20137;-79
2023/06/02 03:38:00;;;;;;;5.47;1.60;;;11.30;99.90;;;;;;5027420;28;20034;-79
2023/06/02 03:40:26;;;;;;;2.92;1.30;;;11.30;99.90;;;;;;5008924;28;20100;-79
2023/06/02 03:42:51;;;;;;;4.85;1.50;;;11.20;99.90;;;;;;5035072;28;20044;-79
2023/06/02 03:45:17;;;;;;;5.85;1.60;;;11.20;99.90;;;;;;5020711;28;20054;-79
2023/06/02 03:47:42;;;;;;;4.72;1.63;;;11.20;99.90;;;;;;5015761;28;20665;-80
2023/06/02 03:50:08;;;;;;;4.15;1.80;;;11.20;99.90;;;;;;5035404;28;20103;-78
2023/06/02 03:52:34;;;;;;;5.82;1.77;;;11.10;99.90;;;;;;5030234;28;20121;-79
2023/06/02 03:55:00;;;;;;;4.82;1.75;;;11.10;99.90;;;;;;5028892;28;20508;-80
2023/06/02 03:57:26;;;;;;;7.40;2.38;;;11.10;99.90;;;;;;5010205;28;20492;-79
2023/06/02 03:59:52;;;;;;;4.68;1.95;;;11.10;99.90;;;;;;5024445;28;20037;-79
2023/06/02 04:02:17;;;;;;;5.35;1.65;;;11.10;99.90;;;;;;5037724;28;20088;-80
2023/06/02 04:04:43;;;;;;;5.63;1.67;;;11.00;99.90;;;;;;5035415;28;20190;-79
2023/06/02 04:07:08;;;;;;;6.82;1.70;;;11.00;99.90;;;;;;5010886;28;20057;-79
2023/06/02 04:09:35;;;;;;;6.50;1.70;;;11.00;99.90;;;;;;5017768;28;20041;-79
2023/06/02 04:12:01;;;;;;;7.93;1.88;;;11.00;99.90;;;;;;5019350;28;20112;-79
2023/06/02 04:14:27;;;;;;;7.65;2.10;;;11.10;99.90;;;;;;5009952;28;20116;-79
2023/06/02 04:16:54;;;;;;;6.22;1.70;;;11.00;99.90;;;;;;5031952;28;20017;-78
2023/06/02 04:19:19;;;;;;;3.45;1.70;;;11.00;99.90;;;;;;5016125;28;20045;-79
2023/06/02 04:21:45;;;;;;;10.18;2.00;;;10.90;99.90;;;;;;5032243;28;20592;-79
2023/06/02 04:24:10;;;;;;;6.45;1.88;;;11.00;99.90;;;;;;5017742;28;20477;-79
2023/06/02 04:26:36;;;;;;;9.90;2.42;;;10.90;99.90;;;;;;5027150;28;20041;-79
2023/06/02 04:29:02;;;;;;;7.90;2.22;;;11.00;99.90;;;;;;5022998;28;20044;-79
2023/06/02 04:31:42;;;;;;;3.08;1.85;;;11.00;99.90;;;;;;5040468;28;20041;-79
2023/06/02 04:34:08;;;;;;;6.83;2.27;;;11.10;99.90;;;;;;5042742;28;20488;-78
2023/06/02 04:36:36;;;;;;;7.63;2.35;;;11.10;99.90;;;;;;5018339;28;20037;-80
2023/06/02 04:39:02;;;;;;;6.97;1.77;;;11.10;99.90;;;;;;5042129;28;20478;-79
2023/06/02 04:41:29;;;;;;;5.78;2.10;;;11.20;99.90;;;;;;5021499;28;20144;-79
2023/06/02 04:43:56;;;;;;;7.55;2.00;;;11.20;99.90;;;;;;5031674;28;20160;-80
2023/06/02 04:46:24;;;;;;;5.22;1.73;;;11.30;99.90;;;;;;5013679;28;20025;-79
2023/06/02 04:48:49;;;;;;;8.98;2.40;;;11.30;99.90;;;;;;5018191;28;20029;-79
2023/06/02 04:51:15;;;;;;;6.97;2.17;;;11.30;99.90;;;;;;5023117;28;20049;-80
2023/06/02 04:53:40;;;;;;;8.93;2.28;;;11.30;99.90;;;;;;5020741;28;20090;-79
2023/06/02 04:56:06;;;;;;;8.23;2.38;;;11.30;99.90;;;;;;5009368;28;20508;-80
2023/06/02 04:58:32;;;;;;;5.95;2.33;;;11.30;99.90;;;;;;5027761;28;20187;-80
2023/06/02 05:00:58;;;;;;;8.70;2.22;;;11.40;99.90;;;;;;5013512;28;20017;-79
2023/06/02 05:03:23;;;;;;;8.20;2.20;;;11.40;99.90;;;;;;5023308;28;20102;-78
2023/06/02 05:05:49;;;;;;;9.48;2.22;;;11.50;99.90;;;;;;5020567;28;21714;-80
2023/06/02 05:08:14;;;;;;;6.70;2.20;;;11.50;99.90;;;;;;5019661;28;20183;-79
2023/06/02 05:10:40;;;;;;;10.10;2.53;;;11.50;99.90;;;;;;5015343;28;20033;-79
2023/06/02 05:13:06;;;;;;;9.65;2.88;;;11.40;99.90;;;;;;5016706;28;20378;-79
2023/06/02 05:15:31;;;;;;;9.73;2.25;;;11.50;99.90;;;;;;5013432;28;20060;-79
2023/06/02 05:17:57;;;;;;;7.80;2.40;;;11.40;99.90;;;;;;5018535;28;20499;-80
2023/06/02 05:20:22;;;;;;;11.15;2.70;;;11.50;99.90;;;;;;5008470;28;20164;-79
2023/06/02 05:22:48;;;;;;;6.10;2.53;;;11.50;99.90;;;;;;5012237;28;20044;-79
2023/06/02 05:25:13;;;;;;;9.32;2.10;;;11.40;99.90;;;;;;5020354;28;20061;-80
2023/06/02 05:27:39;;;;;;;9.45;2.20;;;11.40;99.90;;;;;;5032096;28;20021;-79
2023/06/02 05:30:06;;;;;;;9.15;2.03;;;11.50;99.90;;;;;;5018269;28;20029;-79
2023/06/02 05:32:31;;;;;;;8.88;2.70;;;11.60;99.90;;;;;;5016152;28;20169;-79
2023/06/02 05:34:57;;;;;;;8.93;2.75;;;11.60;99.90;;;;;;5032571;28;20136;-78
2023/06/02 05:37:22;;;;;;;7.80;2.08;;;11.60;99.90;;;;;;5035173;28;20035;-78
2023/06/02 05:39:48;;;;;;;8.93;2.17;;;11.70;99.90;;;;;;5038933;28;20037;-79
2023/06/02 05:42:14;;;;;;;8.52;1.95;;;11.60;99.90;;;;;;5012201;28;20037;-78
2023/06/02 05:44:40;;;;;;;11.77;2.20;;;11.70;99.90;;;;;;5007936;28;20456;-78
2023/06/02 05:47:05;;;;;;;6.65;2.35;;;11.70;99.90;;;;;;5033403;28;20097;-79
2023/06/02 05:49:31;;;;;;;8.02;2.30;;;11.60;99.90;;;;;;5013715;28;20948;-79
2023/06/02 05:51:57;;;;;;;11.93;2.60;;;11.70;99.90;;;;;;5018195;28;20064;-78
2023/06/02 05:54:22;;;;;;;6.93;2.22;;;11.70;99.90;;;;;;5032650;28;20025;-79
2023/06/02 05:56:48;;;;;;;8.98;2.30;;;11.70;99.90;;;;;;5022984;28;20033;-79
2023/06/02 05:59:13;;;;;;;13.88;2.40;;;11.80;99.90;;;;;;5032278;28;20069;-79
2023/06/02 06:01:39;;;;;;;7.65;2.40;;;11.90;99.90;;;;;;5010610;28;20037;-78
2023/06/02 06:04:04;;;;;;;6.65;2.03;;;11.90;99.90;;;;;;5014340;28;20599;-79
2023/06/02 06:06:30;;;;;;;7.97;2.78;;;11.80;99.90;;;;;;5019957;28;20030;-82
2023/06/02 06:08:56;;;;;;;9.60;2.15;;;11.80;99.90;;;;;;5012764;28;20046;-81
2023/06/02 06:11:22;;;;;;;8.82;2.40;;;11.80;99.90;;;;;;5033805;28;20565;-82
2023/06/02 06:13:48;;;;;;;12.48;2.35;;;11.80;99.90;;;;;;5014039;28;20112;-81
2023/06/02 06:16:14;;;;;;;11.02;2.38;;;11.80;99.90;;;;;;5031207;28;20461;-81
2023/06/02 06:18:39;;;;;;;8.68;2.13;;;11.90;99.90;;;;;;5019503;28;20098;-81
2023/06/02 06:21:05;;;;;;;6.18;1.70;;;12.00;99.90;;;;;;5020120;28;20146;-82
2023/06/02 06:23:30;;;;;;;6.55;2.25;;;11.90;99.90;;;;;;5014215;28;20063;-81
2023/06/02 06:25:56;;;;;;;6.82;3.13;;;12.00;99.90;;;;;;5039582;28;20350;-81
2023/06/02 06:28:22;;;;;;;11.32;2.80;;;12.00;99.90;;;;;;5037153;28;20140;-82
2023/06/02 06:30:48;;;;;;;13.40;2.63;;;11.90;99.90;;;;;;5019593;28;20051;-81
2023/06/02 06:33:14;;;;;;;7.90;2.45;;;11.90;99.90;;;;;;5013744;28;20037;-81
2023/06/02 06:35:39;;;;;;;9.60;2.20;;;12.10;99.90;;;;;;5016185;28;20405;-82
2023/06/02 06:38:05;;;;;;;8.10;2.25;;;12.20;99.90;;;;;;5006694;28;20349;-81
2023/06/02 06:40:33;;;;;;;12.10;3.60;;;12.30;99.90;;;;;;5022526;28;20034;-82
2023/06/02 06:42:59;;;;;;;14.93;3.53;;;12.50;99.40;;;;;;5005408;28;20042;-82
2023/06/02 06:45:25;;;;;;;8.00;2.20;;;12.50;99.20;;;;;;5003274;28;20045;-82
2023/06/02 06:47:50;;;;;;;11.63;2.75;;;12.50;98.60;;;;;;5007806;28;20133;-81
2023/06/02 06:50:16;;;;;;;4.85;2.25;;;12.50;98.60;;;;;;5032016;28;20036;-81
2023/06/02 06:52:43;;;;;;;6.78;2.03;;;12.60;98.90;;;;;;5029941;28;20520;-80
2023/06/02 06:55:08;;;;;;;6.47;2.08;;;12.90;99.80;;;;;;5043337;28;20029;-80
2023/06/02 06:57:34;;;;;;;7.28;2.33;;;12.90;98.40;;;;;;5030875;28;20036;-80
2023/06/02 07:00:00;;;;;;;6.13;2.30;;;12.50;98.00;;;;;;5026013;28;20106;-80
2023/06/02 07:02:25;;;;;;;10.27;2.05;;;12.70;99.50;;;;;;5050503;28;20017;-81
2023/06/02 07:04:51;;;;;;;6.95;2.30;;;12.70;98.30;;;;;;5031370;28;20391;-80
2023/06/02 07:07:17;;;;;;;7.75;2.20;;;12.80;98.70;;;;;;5020918;28;20029;-83
2023/06/02 07:09:43;;;;;;;11.15;2.35;;;12.80;99.40;;;;;;5011977;28;20056;-81
2023/06/02 07:12:08;;;;;;;13.63;6.00;;;12.60;98.80;;;;;;5028559;28;20033;-80
2023/06/02 07:14:34;;;;;;;10.85;3.40;;;12.60;99.20;;;;;;5021883;28;20476;-80
2023/06/02 07:17:00;;;;;;;5.22;2.05;;;12.80;98.80;;;;;;5036565;28;20492;-80
2023/06/02 07:19:25;;;;;;;8.02;2.15;;;13.00;98.70;;;;;;5022656;28;20060;-81
2023/06/02 07:21:54;;;;;;;9.27;2.08;;;13.10;98.10;;;;;;5028883;28;20025;-80
2023/06/02 07:24:20;;;;;;;8.80;2.40;;;13.40;98.40;;;;;;5039432;28;20029;-81
2023/06/02 07:26:45;;;;;;;6.50;2.13;;;13.20;97.30;;;;;;5019800;28;20029;-81
2023/06/02 07:29:11;;;;;;;7.50;2.85;;;13.10;98.60;;;;;;5016026;28;20029;-80
2023/06/02 07:31:37;;;;;;;5.93;2.13;;;13.10;98.10;;;;;;5013291;28;20068;-79
2023/06/02 07:34:03;;;;;;;7.32;1.85;;;13.10;97.00;;;;;;5034926;28;20089;-80
2023/06/02 07:36:28;;;;;;;4.97;2.05;;;13.20;96.80;;;;;;5024986;28;20029;-81
2023/06/02 07:38:54;;;;;;;6.25;1.75;;;13.20;96.90;;;;;;5019538;28;20036;-80
2023/06/02 07:41:20;;;;;;;6.57;2.00;;;13.30;96.90;;;;;;5015215;28;20056;-81
2023/06/02 07:43:46;;;;;;;7.68;2.00;;;13.20;96.40;;;;;;5022079;28;20049;-80
2023/06/02 07:46:12;;;;;;;7.85;2.13;;;13.10;96.70;;;;;;5026983;28;20048;-81
2023/06/02 07:48:37;;;;;;;7.25;2.05;;;13.30;97.20;;;;;;5034624;28;20519;-81
2023/06/02 07:51:03;;;;;;;8.57;2.30;;;13.40;97.50;;;;;;5025623;28;20406;-81
2023/06/02 07:53:29;;;;;;;6.35;2.30;;;13.40;97.30;;;;;;5007015;28;20040;-81
2023/06/02 07:55:55;;;;;;;9.77;2.20;;;13.40;97.40;;;;;;5027385;28;20900;-81
2023/06/02 07:58:21;;;;;;;9.20;2.38;;;13.20;96.60;;;;;;5013718;28;20631;-81
2023/06/02 08:00:48;;;;;;;6.18;2.30;;;13.30;97.80;;;;;;5014175;28;20120;-82
2023/06/02 08:03:14;;;;;;;7.78;2.20;;;13.40;97.00;;;;;;5022031;28;20067;-80
2023/06/02 08:05:40;;;;;;;9.05;1.95;;;13.60;96.70;;;;;;5021795;28;20970;-80
2023/06/02 08:08:06;;;;;;;6.55;2.30;;;13.70;97.30;;;;;;5014449;28;20724;-82
2023/06/02 08:10:31;;;;;;;7.82;1.98;;;14.00;96.30;;;;;;5011611;28;20080;-79
2023/06/02 08:12:57;;;;;;;5.35;1.80;;;14.10;95.60;;;;;;5025769;28;20737;-78
2023/06/02 08:15:23;;;;;;;11.55;2.05;;;14.00;97.00;;;;;;5024097;28;20042;-79
2023/06/02 08:17:49;;;;;;;6.18;1.77;;;14.00;95.20;;;;;;5027045;28;20109;-77
2023/06/02 08:20:16;;;;;;;7.60;2.30;;;14.10;95.30;;;;;;5012537;28;20066;-78
2023/06/02 08:22:44;;;;;;;8.40;1.88;;;13.90;97.60;;;;;;5021709;28;20022;-79
2023/06/02 08:25:12;;;;;;;7.47;1.73;;;14.40;95.40;;;;;;5005398;28;20052;-79
2023/06/02 08:27:38;;;;;;;8.85;1.75;;;14.50;95.80;;;;;;5028714;28;20067;-77
2023/06/02 08:30:05;;;;;;;10.07;1.92;;;14.70;95.70;;;;;;5029971;28;20033;-78
2023/06/02 08:32:33;;;;;;;6.18;1.67;;;14.70;94.40;;;;;;5025760;28;20099;-80
2023/06/02 08:35:01;;;;;;;8.70;2.03;;;14.50;92.90;;;;;;5033846;28;20597;-79
2023/06/02 08:37:29;;;;;;;7.07;2.08;;;14.90;95.90;;;;;;5014977;28;20087;-79
2023/06/02 08:39:55;;;;;;;9.15;2.00;;;15.00;93.70;;;;;;5040757;28;20056;-79
2023/06/02 08:42:25;;;;;;;4.45;1.40;;;15.30;94.70;;;;;;5030660;28;20037;-78
2023/06/02 08:44:50;;;;;;;5.78;1.45;;;15.80;93.30;;;;;;5023833;28;20196;-79
2023/06/02 08:47:21;;;;;;;8.20;1.75;;;15.50;91.70;;;;;;5027769;28;20524;-78
2023/06/02 08:49:47;;;;;;;6.25;1.85;;;15.50;92.70;;;;;;5019593;28;20122;-79
2023/06/02 08:52:22;;;;;;;10.95;1.70;;;15.50;91.90;;;;;;5023264;28;20036;-79
2023/06/02 08:54:49;;;;;;;6.90;1.60;;;16.00;93.20;;;;;;5032748;28;20025;-79
2023/06/02 08:57:16;;;;;;;5.75;1.50;;;16.20;93.10;;;;;;5016581;28;20032;-78
2023/06/02 08:59:45;;;;;;;5.60;1.70;;;16.20;90.00;;;;;;5032936;28;20029;-78
2023/06/02 09:02:10;;;;;;;5.78;1.42;;;16.10;91.50;;;;;;5032916;28;20029;-78
2023/06/02 09:04:47;;;;;;;13.05;1.83;;;15.90;90.40;;;;;;4728560;28;10001002;-78
2023/06/02 09:07:12;;;;;;;8.13;1.85;;;15.20;90.90;;;;;;5023619;28;20282;-79
2023/06/02 09:09:43;;;;;;;5.97;1.45;;;15.20;92.30;;;;;;5033307;28;20033;-78
2023/06/02 09:12:09;;;;;;;5.65;1.50;;;15.30;92.30;;;;;;5028330;28;20028;-78
2023/06/02 09:14:36;;;;;;;7.85;1.85;;;15.70;91.70;;;;;;5018019;28;20524;-78
2023/06/02 09:17:01;;;;;;;8.93;1.70;;;15.80;92.30;;;;;;5029163;28;20033;-78
2023/06/02 09:19:46;;;;;;;10.82;1.50;;;16.00;91.20;;;;;;5011914;28;20043;-78
2023/06/02 09:22:12;;;;;;;7.22;1.70;;;15.80;91.30;;;;;;5022477;28;20688;-77
2023/06/02 09:24:37;;;;;;;7.75;1.75;;;16.10;91.50;;;;;;5008462;28;20063;-78
2023/06/02 09:27:03;;;;;;;7.43;1.80;;;16.20;91.10;;;;;;5011908;28;20116;-78
2023/06/02 09:29:29;;;;;;;6.93;1.70;;;16.80;91.80;;;;;;5030400;28;20033;-77
2023/06/02 09:31:58;;;;;;;6.60;1.50;;;16.70;89.80;;;;;;5032440;28;20045;-78
2023/06/02 09:34:35;;;;;;;6.18;1.30;;;16.40;91.90;;;;;;5032200;28;20132;-78
2023/06/02 09:37:15;;;;;;;8.73;1.42;;;16.50;88.70;;;;;;5011443;28;20025;-78
2023/06/02 09:39:46;;;;;;;5.00;1.55;;;16.50;89.10;;;;;;5034492;28;20049;-78
2023/06/02 09:42:17;;;;;;;4.63;1.70;;;16.10;90.30;;;;;;5004281;28;20025;-79
2023/06/02 09:45:11;;;;;;;3.88;1.20;;;16.10;89.40;;;;;;5026357;28;20724;-79
2023/06/02 09:47:38;;;;;;;7.25;1.70;;;16.10;90.20;;;;;;5029055;28;20048;-78
2023/06/02 09:50:05;;;;;;;6.00;1.63;;;16.30;90.80;;;;;;5012504;28;20465;-81
2023/06/02 09:52:31;;;;;;;6.15;1.58;;;16.50;89.60;;;;;;5037443;28;20025;-78
2023/06/02 09:54:58;;;;;;;9.45;1.70;;;16.30;90.50;;;;;;5024627;28;20048;-78
2023/06/02 09:57:24;;;;;;;7.60;1.52;;;16.30;88.50;;;;;;5013497;28;20408;-78
2023/06/02 09:59:51;;;;;;;5.18;1.52;;;16.90;90.60;;;;;;5020589;28;20140;-78
2023/06/02 10:02:17;;;;;;;6.57;1.50;;;17.20;85.00;;;;;;5014676;28;20084;-78
2023/06/02 10:04:42;;;;;;;7.55;1.50;;;17.30;85.00;;;;;;5012085;28;20037;-77
2023/06/02 10:07:25;;;;;;;9.75;1.70;;;17.00;83.20;;;;;;5009473;28;20117;-78
2023/06/02 10:10:13;;;;;;;7.43;1.45;;;17.40;82.20;;;;;;5013050;28;20048;-78
2023/06/02 10:13:00;;;;;;;4.40;1.45;;;17.40;81.40;;;;;;5036030;28;20048;-78
2023/06/02 10:15:34;;;;;;;5.20;1.60;;;17.70;83.40;;;;;;5029255;28;20036;-77
2023/06/02 10:18:12;;;;;;;8.07;1.40;;;18.60;73.00;;;;;;5014702;28;20625;-78
2023/06/02 10:20:59;;;;;;;6.07;1.48;;;19.10;74.60;;;;;;5007519;28;20120;-77
2023/06/02 10:24:12;;;;;;;7.88;1.40;;;19.10;71.50;;;;;;5006136;28;20044;-78
2023/06/02 10:27:20;;;;;;;6.90;1.70;;;18.50;76.40;;;;;;4975677;28;20113;-77
2023/06/02 10:29:46;;;;;;;5.75;1.60;;;17.70;78.50;;;;;;4983640;28;20030;-78
2023/06/02 10:32:22;;;;;;;6.47;1.70;;;18.00;73.90;;;;;;5013185;28;20132;-78
2023/06/02 10:35:06;;;;;;;7.35;1.42;;;19.20;85.60;;;;;;5013623;28;20052;-77
2023/06/02 10:37:34;;;;;;;9.85;1.70;;;19.30;72.20;;;;;;5033900;28;20052;-78
2023/06/02 10:39:59;;;;;;;6.07;1.80;;;19.20;68.40;;;;;;5041525;28;20527;-77
2023/06/02 10:42:27;;;;;;;11.82;1.65;;;18.80;70.50;;;;;;5044595;28;20056;-78
2023/06/02 10:45:23;;;;;;;5.03;1.45;;;18.30;70.80;;;;;;5017410;28;20484;-78
2023/06/02 10:47:48;;;;;;;6.18;1.50;;;19.30;71.00;;;;;;5001480;28;20088;-78
2023/06/02 10:50:18;;;;;;;6.57;1.60;;;19.80;71.40;;;;;;5024545;28;20025;-78
2023/06/02 10:53:01;;;;;;;6.45;1.85;;;20.80;70.70;;;;;;5013445;28;20029;-78
2023/06/02 10:55:30;;;;;;;7.72;1.90;;;21.60;59.20;;;;;;5020676;28;20104;-78
2023/06/02 10:58:04;;;;;;;8.38;1.80;;;21.00;57.40;;;;;;4993987;28;20029;-78
2023/06/02 11:00:36;;;;;;;8.60;2.00;;;20.50;61.60;;;;;;4998902;28;20067;-78
2023/06/02 11:03:27;;;;;;;8.00;1.58;;;20.90;65.10;;;;;;4994338;28;20025;-78
2023/06/02 11:06:18;;;;;;;7.78;1.90;;;20.70;61.20;;;;;;4996686;28;20051;-78
2023/06/02 11:08:45;;;;;;;6.43;1.65;;;20.50;58.10;;;;;;5009321;28;20089;-78
2023/06/02 11:11:11;;;;;;;6.53;1.85;;;21.90;62.30;;;;;;5018612;28;20026;-78
2023/06/02 11:13:59;;;;;;;6.82;2.13;;;24.30;53.20;;;;;;4999990;28;20061;-78
2023/06/02 11:16:27;;;;;;;5.53;1.80;;;26.00;46.20;;;;;;4995026;28;20040;-78
2023/06/02 11:18:54;;;;;;;5.50;1.63;;;26.30;38.90;;;;;;4986092;28;20029;-77
2023/06/02 11:21:21;;;;;;;6.97;1.80;;;25.60;39.40;;;;;;5003699;28;20036;-78
2023/06/02 11:23:47;;;;;;;10.90;1.63;;;25.20;38.90;;;;;;4992373;28;20030;-78
2023/06/02 11:26:21;;;;;;;9.52;2.13;;;25.40;39.60;;;;;;4999795;28;20025;-78
2023/06/02 11:28:47;;;;;;;7.47;1.60;;;25.20;41.00;;;;;;4986034;28;20034;-78
2023/06/02 11:31:13;;;;;;;9.30;1.85;;;24.80;42.10;;;;;;4982930;28;20040;-77
2023/06/02 11:33:51;;;;;;;5.45;1.60;;;23.90;43.40;;;;;;4995902;28;20029;-77
2023/06/02 11:36:27;;;;;;;6.78;2.00;;;23.10;42.80;;;;;;5005106;28;20061;-77
2023/06/02 11:39:03;;;;;;;6.50;1.92;;;22.50;51.00;;;;;;5004106;28;20049;-76
2023/06/02 11:41:29;;;;;;;6.47;1.73;;;22.50;53.90;;;;;;4985191;28;20033;-76
2023/06/02 11:44:03;;;;;;;11.98;2.05;;;22.70;49.50;;;;;;4994221;28;20045;-78
2023/06/02 11:46:28;;;;;;;7.28;1.98;;;23.00;52.40;;;;;;5019954;28;20041;-77
2023/06/02 11:48:54;;;;;;;5.80;1.50;;;23.00;52.80;;;;;;5037968;28;20102;-77
2023/06/02 11:51:20;;;;;;;10.90;2.47;;;22.90;54.70;;;;;;5016163;28;20048;-77
2023/06/02 11:54:02;;;;;;;7.80;2.08;;;22.80;51.20;;;;;;5017822;28;20113;-77
2023/06/02 11:56:28;;;;;;;8.05;1.73;;;22.30;49.20;;;;;;5033018;28;20029;-77
2023/06/02 11:58:54;;;;;;;6.47;2.03;;;22.30;56.40;;;;;;5016470;28;20184;-77
2023/06/02 12:01:21;;;;;;;6.78;1.70;;;22.80;52.60;;;;;;5010750;28;20124;-77
2023/06/02 12:04:05;;;;;;;9.57;1.95;;;22.70;49.30;;;;;;5005501;28;20032;-77
2023/06/02 12:06:31;;;;;;;6.70;1.95;;;23.10;48.70;;;;;;5035764;28;20032;-77
2023/06/02 12:09:11;;;;;;;10.38;2.17;;;23.00;47.00;;;;;;5027597;28;20029;-76
2023/06/02 12:11:37;;;;;;;10.25;1.77;;;22.60;48.90;;;;;;5015218;28;20045;-77
2023/06/02 12:14:05;;;;;;;6.40;2.00;;;22.40;50.70;;;;;;5023939;28;20031;-77
2023/06/02 12:16:31;;;;;;;7.10;1.90;;;22.20;51.20;;;;;;5021041;28;20024;-76
2023/06/02 12:19:19;;;;;;;8.32;2.25;;;21.90;53.40;;;;;;5040954;28;20025;-78
2023/06/02 12:21:46;;;;;;;8.25;2.25;;;22.50;61.00;;;;;;5005921;28;20433;-77
2023/06/02 12:24:28;;;;;;;8.75;1.85;;;22.70;54.30;;;;;;5014806;28;20032;-77
2023/06/02 12:26:53;;;;;;;11.45;2.45;;;23.20;50.70;;;;;;5010935;28;20869;-77
2023/06/02 12:29:19;;;;;;;10.85;2.63;;;23.10;49.60;;;;;;5004202;28;20788;-78
2023/06/02 12:31:45;;;;;;;10.10;2.35;;;22.70;46.90;;;;;;5027769;28;20037;-77
2023/06/02 12:34:10;;;;;;;8.23;1.98;;;22.60;52.50;;;;;;4659035;28;10000066;-77
2023/06/02 12:36:37;;;;;;;8.80;2.40;;;22.40;50.90;;;;;;5012837;28;20037;-77
2023/06/02 12:39:04;;;;;;;9.80;2.10;;;22.00;51.90;;;;;;5015880;28;20957;-77
2023/06/02 12:41:31;;;;;;;9.48;1.95;;;21.90;60.30;;;;;;5008653;28;20048;-77
2023/06/02 12:43:58;;;;;;;9.13;2.30;;;22.10;52.40;;;;;;5022292;28;21169;-77
2023/06/02 12:46:26;;;;;;;7.70;2.10;;;22.10;54.00;;;;;;5010130;28;20838;-77
2023/06/02 12:48:52;;;;;;;11.68;2.38;;;22.00;54.20;;;;;;5026067;28;20037;-78
2023/06/02 12:51:18;;;;;;;12.38;2.65;;;21.40;53.30;;;;;;5017744;28;20036;-77